sensor_id;sensor_type;location;lat;lon;timestamp;P1;durP1;ratioP1;P2;durP2;ratioP2
23171;SDS011;11754;42.664;23.594;2022-11-11T00:00:12;62.42;;;39.53;;
23171;SDS011;11754;42.664;23.594;2022-11-11T00:02:38;56.53;;;37.33;;
23171;SDS011;11754;42.664;23.594;2022-11-11T00:05:04;58.53;;;37.70;;
23171;SDS011;11754;42.664;23.594;2022-11-11T00:07:29;60.05;;;37.97;;
23171;SDS011;11754;42.664;23.594;2022-11-11T00:09:54;64.80;;;39.08;;
23171;SDS011;11754;42.664;23.594;2022-11-11T00:12:20;59.15;;;38.28;;
23171;SDS011;11754;42.664;23.594;2022-11-11T00:14:45;61.03;;;38.65;;
23171;SDS011;11754;42.664;23.594;2022-11-11T00:17:14;60.75;;;37.53;;
23171;SDS011;11754;42.664;23.594;2022-11-11T00:19:58;57.10;;;35.83;;
23171;SDS011;11754;42.664;23.594;2022-11-11T00:22:41;63.05;;;38.50;;
23171;SDS011;11754;42.664;23.594;2022-11-11T00:25:25;61.22;;;37.63;;
23171;SDS011;11754;42.664;23.594;2022-11-11T00:27:51;56.67;;;37.13;;
23171;SDS011;11754;42.664;23.594;2022-11-11T00:30:16;59.65;;;37.47;;
23171;SDS011;11754;42.664;23.594;2022-11-11T00:32:42;61.85;;;37.15;;
23171;SDS011;11754;42.664;23.594;2022-11-11T00:35:07;61.30;;;38.22;;
23171;SDS011;11754;42.664;23.594;2022-11-11T00:37:51;65.70;;;37.92;;
23171;SDS011;11754;42.664;23.594;2022-11-11T00:40:17;61.83;;;38.70;;
23171;SDS011;11754;42.664;23.594;2022-11-11T00:42:42;59.53;;;36.85;;
23171;SDS011;11754;42.664;23.594;2022-11-11T00:45:08;55.85;;;36.72;;
23171;SDS011;11754;42.664;23.594;2022-11-11T00:47:34;59.35;;;38.00;;
23171;SDS011;11754;42.664;23.594;2022-11-11T00:50:20;63.60;;;37.15;;
23171;SDS011;11754;42.664;23.594;2022-11-11T00:53:08;59.03;;;36.80;;
23171;SDS011;11754;42.664;23.594;2022-11-11T00:55:36;58.20;;;36.38;;
23171;SDS011;11754;42.664;23.594;2022-11-11T00:58:02;61.00;;;37.67;;
23171;SDS011;11754;42.664;23.594;2022-11-11T01:00:27;57.30;;;36.42;;
23171;SDS011;11754;42.664;23.594;2022-11-11T01:02:53;59.08;;;37.05;;
23171;SDS011;11754;42.664;23.594;2022-11-11T01:05:18;62.78;;;37.72;;
23171;SDS011;11754;42.664;23.594;2022-11-11T01:07:43;66.38;;;39.75;;
23171;SDS011;11754;42.664;23.594;2022-11-11T01:10:09;62.85;;;37.92;;
23171;SDS011;11754;42.664;23.594;2022-11-11T01:12:35;61.60;;;37.92;;
23171;SDS011;11754;42.664;23.594;2022-11-11T01:15:00;61.95;;;38.47;;
23171;SDS011;11754;42.664;23.594;2022-11-11T01:17:26;70.55;;;41.05;;
23171;SDS011;11754;42.664;23.594;2022-11-11T01:19:52;60.70;;;38.47;;
23171;SDS011;11754;42.664;23.594;2022-11-11T01:22:17;61.67;;;38.13;;
23171;SDS011;11754;42.664;23.594;2022-11-11T01:24:43;66.20;;;40.13;;
23171;SDS011;11754;42.664;23.594;2022-11-11T01:27:10;65.85;;;40.60;;
23171;SDS011;11754;42.664;23.594;2022-11-11T01:29:35;65.63;;;40.38;;
23171;SDS011;11754;42.664;23.594;2022-11-11T01:32:00;62.30;;;38.70;;
23171;SDS011;11754;42.664;23.594;2022-11-11T01:34:26;60.88;;;39.03;;
23171;SDS011;11754;42.664;23.594;2022-11-11T01:36:51;61.60;;;38.05;;
23171;SDS011;11754;42.664;23.594;2022-11-11T01:39:17;60.38;;;37.67;;
23171;SDS011;11754;42.664;23.594;2022-11-11T01:41:42;59.67;;;36.53;;
23171;SDS011;11754;42.664;23.594;2022-11-11T01:54:42;51.15;;;33.25;;
23171;SDS011;11754;42.664;23.594;2022-11-11T02:00:10;75.00;;;41.58;;
23171;SDS011;11754;42.664;23.594;2022-11-11T02:02:39;60.67;;;37.70;;
23171;SDS011;11754;42.664;23.594;2022-11-11T02:05:10;52.67;;;33.00;;
23171;SDS011;11754;42.664;23.594;2022-11-11T02:07:56;56.40;;;34.28;;
23171;SDS011;11754;42.664;23.594;2022-11-11T02:10:24;50.92;;;33.63;;
23171;SDS011;11754;42.664;23.594;2022-11-11T02:12:51;56.38;;;34.40;;
23171;SDS011;11754;42.664;23.594;2022-11-11T02:15:35;51.97;;;32.75;;
23171;SDS011;11754;42.664;23.594;2022-11-11T02:18:01;53.03;;;33.50;;
23171;SDS011;11754;42.664;23.594;2022-11-11T02:20:28;54.75;;;34.60;;
23171;SDS011;11754;42.664;23.594;2022-11-11T02:23:05;56.72;;;34.60;;
23171;SDS011;11754;42.664;23.594;2022-11-11T02:25:52;54.22;;;35.78;;
23171;SDS011;11754;42.664;23.594;2022-11-11T02:28:20;57.55;;;35.15;;
23171;SDS011;11754;42.664;23.594;2022-11-11T02:30:48;51.65;;;34.60;;
23171;SDS011;11754;42.664;23.594;2022-11-11T02:33:13;52.67;;;33.78;;
23171;SDS011;11754;42.664;23.594;2022-11-11T02:35:42;54.28;;;35.53;;
23171;SDS011;11754;42.664;23.594;2022-11-11T02:38:11;54.22;;;34.15;;
23171;SDS011;11754;42.664;23.594;2022-11-11T02:40:41;52.60;;;33.80;;
23171;SDS011;11754;42.664;23.594;2022-11-11T02:43:26;52.95;;;34.65;;
23171;SDS011;11754;42.664;23.594;2022-11-11T02:45:52;59.30;;;35.25;;
23171;SDS011;11754;42.664;23.594;2022-11-11T02:48:18;56.60;;;35.08;;
23171;SDS011;11754;42.664;23.594;2022-11-11T02:50:43;54.78;;;34.25;;
23171;SDS011;11754;42.664;23.594;2022-11-11T02:53:08;59.15;;;36.80;;
23171;SDS011;11754;42.664;23.594;2022-11-11T02:55:34;60.17;;;35.90;;
23171;SDS011;11754;42.664;23.594;2022-11-11T02:57:59;67.50;;;40.47;;
23171;SDS011;11754;42.664;23.594;2022-11-11T03:00:25;66.20;;;39.55;;
23171;SDS011;11754;42.664;23.594;2022-11-11T03:02:50;54.70;;;33.75;;
23171;SDS011;11754;42.664;23.594;2022-11-11T03:05:16;49.63;;;33.47;;
23171;SDS011;11754;42.664;23.594;2022-11-11T03:07:41;51.25;;;33.45;;
23171;SDS011;11754;42.664;23.594;2022-11-11T03:10:07;52.90;;;34.33;;
23171;SDS011;11754;42.664;23.594;2022-11-11T03:12:32;54.08;;;34.20;;
23171;SDS011;11754;42.664;23.594;2022-11-11T03:14:58;51.28;;;34.55;;
23171;SDS011;11754;42.664;23.594;2022-11-11T03:17:23;56.45;;;37.22;;
23171;SDS011;11754;42.664;23.594;2022-11-11T03:20:07;56.08;;;36.53;;
23171;SDS011;11754;42.664;23.594;2022-11-11T03:25:39;59.50;;;36.95;;
23171;SDS011;11754;42.664;23.594;2022-11-11T03:28:11;63.15;;;36.70;;
23171;SDS011;11754;42.664;23.594;2022-11-11T03:30:41;56.92;;;37.17;;
23171;SDS011;11754;42.664;23.594;2022-11-11T03:33:09;62.50;;;36.95;;
23171;SDS011;11754;42.664;23.594;2022-11-11T03:35:35;58.88;;;36.28;;
23171;SDS011;11754;42.664;23.594;2022-11-11T03:38:01;54.13;;;35.83;;
23171;SDS011;11754;42.664;23.594;2022-11-11T03:40:44;54.10;;;33.08;;
23171;SDS011;11754;42.664;23.594;2022-11-11T03:43:14;48.70;;;33.00;;
23171;SDS011;11754;42.664;23.594;2022-11-11T03:45:41;51.45;;;34.13;;
23171;SDS011;11754;42.664;23.594;2022-11-11T03:48:08;48.42;;;32.45;;
23171;SDS011;11754;42.664;23.594;2022-11-11T03:50:34;52.72;;;34.17;;
23171;SDS011;11754;42.664;23.594;2022-11-11T03:52:59;53.03;;;34.85;;
23171;SDS011;11754;42.664;23.594;2022-11-11T03:55:25;53.50;;;33.95;;
23171;SDS011;11754;42.664;23.594;2022-11-11T03:57:51;55.45;;;33.17;;
23171;SDS011;11754;42.664;23.594;2022-11-11T04:00:18;51.92;;;34.15;;
23171;SDS011;11754;42.664;23.594;2022-11-11T04:02:45;59.63;;;35.53;;
23171;SDS011;11754;42.664;23.594;2022-11-11T04:05:29;60.90;;;35.60;;
23171;SDS011;11754;42.664;23.594;2022-11-11T04:08:14;60.08;;;35.30;;
23171;SDS011;11754;42.664;23.594;2022-11-11T04:11:00;55.53;;;35.92;;
23171;SDS011;11754;42.664;23.594;2022-11-11T04:13:30;57.13;;;35.65;;
23171;SDS011;11754;42.664;23.594;2022-11-11T04:16:14;60.97;;;35.80;;
23171;SDS011;11754;42.664;23.594;2022-11-11T04:18:39;54.47;;;35.33;;
23171;SDS011;11754;42.664;23.594;2022-11-11T04:21:23;61.65;;;39.08;;
23171;SDS011;11754;42.664;23.594;2022-11-11T04:24:11;60.40;;;38.53;;
23171;SDS011;11754;42.664;23.594;2022-11-11T04:27:03;61.13;;;39.08;;
23171;SDS011;11754;42.664;23.594;2022-11-11T04:29:31;62.67;;;39.45;;
23171;SDS011;11754;42.664;23.594;2022-11-11T04:34:49;61.17;;;37.90;;
23171;SDS011;11754;42.664;23.594;2022-11-11T04:37:16;61.63;;;38.30;;
23171;SDS011;11754;42.664;23.594;2022-11-11T04:39:42;58.35;;;36.95;;
23171;SDS011;11754;42.664;23.594;2022-11-11T04:42:26;57.03;;;36.63;;
23171;SDS011;11754;42.664;23.594;2022-11-11T04:44:52;59.88;;;37.85;;
23171;SDS011;11754;42.664;23.594;2022-11-11T04:47:37;61.13;;;37.00;;
23171;SDS011;11754;42.664;23.594;2022-11-11T04:50:03;61.88;;;38.50;;
23171;SDS011;11754;42.664;23.594;2022-11-11T04:52:29;65.90;;;40.28;;
23171;SDS011;11754;42.664;23.594;2022-11-11T04:54:56;61.78;;;39.38;;
23171;SDS011;11754;42.664;23.594;2022-11-11T04:57:41;59.83;;;38.40;;
23171;SDS011;11754;42.664;23.594;2022-11-11T05:00:17;65.10;;;38.83;;
23171;SDS011;11754;42.664;23.594;2022-11-11T05:05:27;64.95;;;40.28;;
23171;SDS011;11754;42.664;23.594;2022-11-11T05:08:13;81.40;;;55.00;;
23171;SDS011;11754;42.664;23.594;2022-11-11T05:10:57;77.40;;;52.92;;
23171;SDS011;11754;42.664;23.594;2022-11-11T05:13:23;76.70;;;50.22;;
23171;SDS011;11754;42.664;23.594;2022-11-11T05:16:27;84.20;;;49.67;;
23171;SDS011;11754;42.664;23.594;2022-11-11T05:19:13;82.40;;;48.88;;
23171;SDS011;11754;42.664;23.594;2022-11-11T05:24:45;89.32;;;49.60;;
23171;SDS011;11754;42.664;23.594;2022-11-11T05:27:29;82.30;;;46.58;;
23171;SDS011;11754;42.664;23.594;2022-11-11T05:29:55;86.93;;;48.22;;
23171;SDS011;11754;42.664;23.594;2022-11-11T05:32:20;84.78;;;48.50;;
23171;SDS011;11754;42.664;23.594;2022-11-11T05:34:47;65.60;;;40.53;;
23171;SDS011;11754;42.664;23.594;2022-11-11T05:37:12;64.97;;;39.30;;
23171;SDS011;11754;42.664;23.594;2022-11-11T05:39:38;60.10;;;39.40;;
23171;SDS011;11754;42.664;23.594;2022-11-11T05:42:04;53.85;;;37.67;;
23171;SDS011;11754;42.664;23.594;2022-11-11T05:44:30;51.90;;;36.25;;
23171;SDS011;11754;42.664;23.594;2022-11-11T05:46:55;59.95;;;39.08;;
23171;SDS011;11754;42.664;23.594;2022-11-11T05:49:21;58.75;;;38.45;;
23171;SDS011;11754;42.664;23.594;2022-11-11T05:51:46;57.60;;;38.97;;
23171;SDS011;11754;42.664;23.594;2022-11-11T05:54:12;63.78;;;38.83;;
23171;SDS011;11754;42.664;23.594;2022-11-11T05:56:38;72.07;;;41.42;;
23171;SDS011;11754;42.664;23.594;2022-11-11T05:59:05;78.82;;;41.60;;
23171;SDS011;11754;42.664;23.594;2022-11-11T06:01:31;77.32;;;41.55;;
23171;SDS011;11754;42.664;23.594;2022-11-11T06:03:57;71.40;;;42.20;;
23171;SDS011;11754;42.664;23.594;2022-11-11T06:06:22;72.50;;;41.50;;
23171;SDS011;11754;42.664;23.594;2022-11-11T06:08:47;78.22;;;45.78;;
23171;SDS011;11754;42.664;23.594;2022-11-11T06:11:13;76.30;;;48.50;;
23171;SDS011;11754;42.664;23.594;2022-11-11T06:13:38;101.20;;;54.42;;
23171;SDS011;11754;42.664;23.594;2022-11-11T06:16:04;73.00;;;45.53;;
23171;SDS011;11754;42.664;23.594;2022-11-11T06:18:29;76.25;;;46.03;;
23171;SDS011;11754;42.664;23.594;2022-11-11T06:20:56;77.22;;;47.58;;
23171;SDS011;11754;42.664;23.594;2022-11-11T06:23:22;85.93;;;47.83;;
23171;SDS011;11754;42.664;23.594;2022-11-11T06:25:48;86.70;;;48.20;;
23171;SDS011;11754;42.664;23.594;2022-11-11T06:28:32;74.90;;;44.83;;
23171;SDS011;11754;42.664;23.594;2022-11-11T06:30:57;81.60;;;46.17;;
23171;SDS011;11754;42.664;23.594;2022-11-11T06:33:23;75.43;;;43.05;;
23171;SDS011;11754;42.664;23.594;2022-11-11T06:35:48;70.25;;;42.17;;
23171;SDS011;11754;42.664;23.594;2022-11-11T06:38:14;80.40;;;42.95;;
23171;SDS011;11754;42.664;23.594;2022-11-11T06:40:41;69.88;;;42.95;;
23171;SDS011;11754;42.664;23.594;2022-11-11T06:43:06;74.78;;;43.80;;
23171;SDS011;11754;42.664;23.594;2022-11-11T06:45:32;78.35;;;43.75;;
23171;SDS011;11754;42.664;23.594;2022-11-11T06:47:59;75.00;;;43.38;;
23171;SDS011;11754;42.664;23.594;2022-11-11T06:50:24;76.90;;;43.58;;
23171;SDS011;11754;42.664;23.594;2022-11-11T06:52:50;66.65;;;42.78;;
23171;SDS011;11754;42.664;23.594;2022-11-11T06:55:16;66.60;;;41.78;;
23171;SDS011;11754;42.664;23.594;2022-11-11T06:57:42;80.20;;;43.13;;
23171;SDS011;11754;42.664;23.594;2022-11-11T07:00:07;76.57;;;44.92;;
23171;SDS011;11754;42.664;23.594;2022-11-11T07:02:33;80.32;;;44.38;;
23171;SDS011;11754;42.664;23.594;2022-11-11T07:04:59;76.35;;;44.60;;
23171;SDS011;11754;42.664;23.594;2022-11-11T07:07:24;64.40;;;41.92;;
23171;SDS011;11754;42.664;23.594;2022-11-11T07:09:50;74.75;;;44.95;;
23171;SDS011;11754;42.664;23.594;2022-11-11T07:12:16;72.20;;;44.30;;
23171;SDS011;11754;42.664;23.594;2022-11-11T07:14:41;68.90;;;43.08;;
23171;SDS011;11754;42.664;23.594;2022-11-11T07:17:07;79.88;;;45.33;;
23171;SDS011;11754;42.664;23.594;2022-11-11T07:19:32;76.95;;;47.22;;
23171;SDS011;11754;42.664;23.594;2022-11-11T07:21:58;73.97;;;46.10;;
23171;SDS011;11754;42.664;23.594;2022-11-11T07:24:23;84.22;;;47.35;;
23171;SDS011;11754;42.664;23.594;2022-11-11T07:26:49;81.10;;;47.95;;
23171;SDS011;11754;42.664;23.594;2022-11-11T07:29:14;79.28;;;47.33;;
23171;SDS011;11754;42.664;23.594;2022-11-11T07:31:40;83.70;;;51.25;;
23171;SDS011;11754;42.664;23.594;2022-11-11T07:34:06;78.20;;;49.47;;
23171;SDS011;11754;42.664;23.594;2022-11-11T07:36:32;80.18;;;48.85;;
23171;SDS011;11754;42.664;23.594;2022-11-11T07:38:57;78.93;;;50.22;;
23171;SDS011;11754;42.664;23.594;2022-11-11T07:41:22;80.85;;;50.08;;
23171;SDS011;11754;42.664;23.594;2022-11-11T07:43:48;78.88;;;48.90;;
23171;SDS011;11754;42.664;23.594;2022-11-11T07:46:13;75.72;;;48.40;;
23171;SDS011;11754;42.664;23.594;2022-11-11T07:48:39;73.28;;;47.15;;
23171;SDS011;11754;42.664;23.594;2022-11-11T07:51:04;79.75;;;47.92;;
23171;SDS011;11754;42.664;23.594;2022-11-11T07:53:30;72.32;;;46.95;;
23171;SDS011;11754;42.664;23.594;2022-11-11T07:55:55;67.70;;;45.90;;
23171;SDS011;11754;42.664;23.594;2022-11-11T07:58:20;80.50;;;48.75;;
23171;SDS011;11754;42.664;23.594;2022-11-11T08:00:46;86.90;;;52.78;;
23171;SDS011;11754;42.664;23.594;2022-11-11T08:03:11;74.88;;;45.95;;
23171;SDS011;11754;42.664;23.594;2022-11-11T08:05:37;60.55;;;40.80;;
23171;SDS011;11754;42.664;23.594;2022-11-11T08:08:06;62.67;;;42.08;;
23171;SDS011;11754;42.664;23.594;2022-11-11T08:10:32;60.10;;;41.35;;
23171;SDS011;11754;42.664;23.594;2022-11-11T08:12:58;73.97;;;49.35;;
23171;SDS011;11754;42.664;23.594;2022-11-11T08:15:43;71.88;;;45.10;;
23171;SDS011;11754;42.664;23.594;2022-11-11T08:18:08;64.93;;;43.72;;
23171;SDS011;11754;42.664;23.594;2022-11-11T08:20:34;59.38;;;40.42;;
23171;SDS011;11754;42.664;23.594;2022-11-11T08:22:59;67.72;;;43.58;;
23171;SDS011;11754;42.664;23.594;2022-11-11T08:25:28;65.53;;;41.13;;
23171;SDS011;11754;42.664;23.594;2022-11-11T08:28:01;62.53;;;39.92;;
23171;SDS011;11754;42.664;23.594;2022-11-11T08:30:28;56.63;;;38.47;;
23171;SDS011;11754;42.664;23.594;2022-11-11T08:32:58;66.80;;;38.78;;
23171;SDS011;11754;42.664;23.594;2022-11-11T08:35:24;61.40;;;39.08;;
23171;SDS011;11754;42.664;23.594;2022-11-11T08:37:51;61.17;;;39.20;;
23171;SDS011;11754;42.664;23.594;2022-11-11T08:40:16;56.47;;;37.13;;
23171;SDS011;11754;42.664;23.594;2022-11-11T08:42:42;57.90;;;36.85;;
23171;SDS011;11754;42.664;23.594;2022-11-11T08:45:07;51.72;;;37.63;;
23171;SDS011;11754;42.664;23.594;2022-11-11T08:47:33;55.58;;;35.58;;
23171;SDS011;11754;42.664;23.594;2022-11-11T08:49:59;52.85;;;33.25;;
23171;SDS011;11754;42.664;23.594;2022-11-11T08:52:25;48.65;;;32.13;;
23171;SDS011;11754;42.664;23.594;2022-11-11T08:54:50;51.97;;;31.95;;
23171;SDS011;11754;42.664;23.594;2022-11-11T08:57:15;50.88;;;30.40;;
23171;SDS011;11754;42.664;23.594;2022-11-11T08:59:41;42.45;;;29.40;;
23171;SDS011;11754;42.664;23.594;2022-11-11T09:02:08;43.40;;;28.90;;
23171;SDS011;11754;42.664;23.594;2022-11-11T09:04:36;41.75;;;28.83;;
23171;SDS011;11754;42.664;23.594;2022-11-11T09:07:02;37.38;;;26.42;;
23171;SDS011;11754;42.664;23.594;2022-11-11T09:09:27;39.30;;;27.13;;
23171;SDS011;11754;42.664;23.594;2022-11-11T09:11:52;39.63;;;28.02;;
23171;SDS011;11754;42.664;23.594;2022-11-11T09:14:18;40.17;;;26.75;;
23171;SDS011;11754;42.664;23.594;2022-11-11T09:16:43;38.85;;;25.80;;
23171;SDS011;11754;42.664;23.594;2022-11-11T09:19:08;44.88;;;24.35;;
23171;SDS011;11754;42.664;23.594;2022-11-11T09:21:34;33.72;;;21.10;;
23171;SDS011;11754;42.664;23.594;2022-11-11T09:23:59;29.80;;;18.95;;
23171;SDS011;11754;42.664;23.594;2022-11-11T09:26:24;25.75;;;18.73;;
23171;SDS011;11754;42.664;23.594;2022-11-11T09:28:50;21.77;;;15.90;;
23171;SDS011;11754;42.664;23.594;2022-11-11T09:31:15;23.08;;;17.10;;
23171;SDS011;11754;42.664;23.594;2022-11-11T09:33:41;24.40;;;17.17;;
23171;SDS011;11754;42.664;23.594;2022-11-11T09:36:06;26.58;;;16.73;;
23171;SDS011;11754;42.664;23.594;2022-11-11T09:38:32;24.20;;;15.93;;
23171;SDS011;11754;42.664;23.594;2022-11-11T09:41:04;21.63;;;14.85;;
23171;SDS011;11754;42.664;23.594;2022-11-11T09:43:46;24.60;;;13.82;;
23171;SDS011;11754;42.664;23.594;2022-11-11T09:46:22;25.38;;;15.32;;
23171;SDS011;11754;42.664;23.594;2022-11-11T10:00:15;20.48;;;13.15;;
23171;SDS011;11754;42.664;23.594;2022-11-11T10:02:46;17.15;;;13.15;;
23171;SDS011;11754;42.664;23.594;2022-11-11T10:05:23;21.63;;;12.90;;
23171;SDS011;11754;42.664;23.594;2022-11-11T10:08:03;21.40;;;13.02;;
23171;SDS011;11754;42.664;23.594;2022-11-11T10:10:41;24.35;;;12.68;;
23171;SDS011;11754;42.664;23.594;2022-11-11T10:13:13;22.50;;;13.27;;
23171;SDS011;11754;42.664;23.594;2022-11-11T10:15:52;19.92;;;13.15;;
23171;SDS011;11754;42.664;23.594;2022-11-11T10:21:25;19.92;;;12.35;;
23171;SDS011;11754;42.664;23.594;2022-11-11T10:23:59;22.88;;;11.40;;
23171;SDS011;11754;42.664;23.594;2022-11-11T10:26:35;18.70;;;11.57;;
23171;SDS011;11754;42.664;23.594;2022-11-11T10:29:04;18.10;;;11.85;;
23171;SDS011;11754;42.664;23.594;2022-11-11T10:31:37;17.73;;;11.27;;
23171;SDS011;11754;42.664;23.594;2022-11-11T10:34:10;15.82;;;11.27;;
23171;SDS011;11754;42.664;23.594;2022-11-11T10:36:42;15.88;;;11.30;;
23171;SDS011;11754;42.664;23.594;2022-11-11T10:39:21;19.65;;;10.80;;
23171;SDS011;11754;42.664;23.594;2022-11-11T10:41:50;14.07;;;9.55;;
23171;SDS011;11754;42.664;23.594;2022-11-11T10:44:26;14.60;;;9.95;;
23171;SDS011;11754;42.664;23.594;2022-11-11T10:47:07;13.98;;;9.75;;
23171;SDS011;11754;42.664;23.594;2022-11-11T10:49:35;12.10;;;8.70;;
23171;SDS011;11754;42.664;23.594;2022-11-11T10:52:09;21.92;;;9.60;;
23171;SDS011;11754;42.664;23.594;2022-11-11T10:54:47;15.40;;;10.40;;
23171;SDS011;11754;42.664;23.594;2022-11-11T10:57:22;18.45;;;9.93;;
23171;SDS011;11754;42.664;23.594;2022-11-11T11:00:03;16.05;;;10.35;;
23171;SDS011;11754;42.664;23.594;2022-11-11T11:02:43;12.20;;;9.45;;
23171;SDS011;11754;42.664;23.594;2022-11-11T11:05:27;17.67;;;9.30;;
23171;SDS011;11754;42.664;23.594;2022-11-11T11:08:21;21.13;;;10.48;;
23171;SDS011;11754;42.664;23.594;2022-11-11T11:11:08;12.40;;;9.32;;
23171;SDS011;11754;42.664;23.594;2022-11-11T11:13:44;13.60;;;10.02;;
23171;SDS011;11754;42.664;23.594;2022-11-11T11:16:22;15.55;;;10.70;;
23171;SDS011;11754;42.664;23.594;2022-11-11T11:21:48;12.55;;;9.85;;
23171;SDS011;11754;42.664;23.594;2022-11-11T11:24:22;29.58;;;17.30;;
23171;SDS011;11754;42.664;23.594;2022-11-11T11:26:51;34.33;;;16.05;;
23171;SDS011;11754;42.664;23.594;2022-11-11T11:31:51;28.00;;;13.38;;
23171;SDS011;11754;42.664;23.594;2022-11-11T11:34:17;20.38;;;11.77;;
23171;SDS011;11754;42.664;23.594;2022-11-11T11:36:43;15.18;;;10.75;;
23171;SDS011;11754;42.664;23.594;2022-11-11T11:39:35;15.05;;;11.00;;
23171;SDS011;11754;42.664;23.594;2022-11-11T11:42:04;12.95;;;10.25;;
23171;SDS011;11754;42.664;23.594;2022-11-11T11:44:30;13.07;;;10.40;;
23171;SDS011;11754;42.664;23.594;2022-11-11T11:47:01;13.48;;;10.02;;
23171;SDS011;11754;42.664;23.594;2022-11-11T11:52:32;12.95;;;9.80;;
23171;SDS011;11754;42.664;23.594;2022-11-11T11:55:18;20.52;;;10.32;;
23171;SDS011;11754;42.664;23.594;2022-11-11T12:00:20;12.77;;;10.43;;
23171;SDS011;11754;42.664;23.594;2022-11-11T12:05:45;13.23;;;9.65;;
23171;SDS011;11754;42.664;23.594;2022-11-11T12:11:08;14.50;;;11.35;;
23171;SDS011;11754;42.664;23.594;2022-11-11T12:13:56;15.90;;;12.40;;
23171;SDS011;11754;42.664;23.594;2022-11-11T12:16:40;12.98;;;9.43;;
23171;SDS011;11754;42.664;23.594;2022-11-11T12:21:43;12.25;;;9.88;;
23171;SDS011;11754;42.664;23.594;2022-11-11T12:41:02;19.92;;;13.63;;
23171;SDS011;11754;42.664;23.594;2022-11-11T12:44:24;30.60;;;16.17;;
23171;SDS011;11754;42.664;23.594;2022-11-11T12:46:53;36.72;;;19.73;;
23171;SDS011;11754;42.664;23.594;2022-11-11T12:52:24;14.65;;;10.43;;
23171;SDS011;11754;42.664;23.594;2022-11-11T12:55:14;13.40;;;9.45;;
23171;SDS011;11754;42.664;23.594;2022-11-11T13:00:27;12.75;;;9.65;;
23171;SDS011;11754;42.664;23.594;2022-11-11T13:16:08;16.45;;;9.80;;
23171;SDS011;11754;42.664;23.594;2022-11-11T13:24:14;20.70;;;9.20;;
23171;SDS011;11754;42.664;23.594;2022-11-11T13:26:48;24.75;;;10.73;;
23171;SDS011;11754;42.664;23.594;2022-11-11T13:32:13;28.35;;;14.20;;
23171;SDS011;11754;42.664;23.594;2022-11-11T13:34:43;17.75;;;12.68;;
23171;SDS011;11754;42.664;23.594;2022-11-11T13:37:17;25.40;;;12.63;;
23171;SDS011;11754;42.664;23.594;2022-11-11T13:39:47;26.80;;;21.25;;
23171;SDS011;11754;42.664;23.594;2022-11-11T13:42:18;29.08;;;18.65;;
23171;SDS011;11754;42.664;23.594;2022-11-11T13:44:55;42.75;;;24.48;;
23171;SDS011;11754;42.664;23.594;2022-11-11T13:47:28;25.15;;;14.13;;
23171;SDS011;11754;42.664;23.594;2022-11-11T13:50:02;20.48;;;12.38;;
23171;SDS011;11754;42.664;23.594;2022-11-11T13:52:36;30.10;;;17.63;;
23171;SDS011;11754;42.664;23.594;2022-11-11T13:55:19;25.45;;;15.45;;
23171;SDS011;11754;42.664;23.594;2022-11-11T13:57:58;25.13;;;13.88;;
23171;SDS011;11754;42.664;23.594;2022-11-11T14:00:26;20.08;;;13.50;;
23171;SDS011;11754;42.664;23.594;2022-11-11T14:05:37;20.05;;;12.70;;
23171;SDS011;11754;42.664;23.594;2022-11-11T14:08:03;22.20;;;13.90;;
23171;SDS011;11754;42.664;23.594;2022-11-11T14:15:56;21.25;;;14.30;;
23171;SDS011;11754;42.664;23.594;2022-11-11T14:20:51;17.63;;;12.50;;
23171;SDS011;11754;42.664;23.594;2022-11-11T14:25:46;16.27;;;11.40;;
23171;SDS011;11754;42.664;23.594;2022-11-11T14:30:57;22.90;;;13.23;;
23171;SDS011;11754;42.664;23.594;2022-11-11T14:39:09;18.83;;;11.40;;
23171;SDS011;11754;42.664;23.594;2022-11-11T14:41:56;20.77;;;11.53;;
23171;SDS011;11754;42.664;23.594;2022-11-11T14:52:15;15.00;;;10.13;;
23171;SDS011;11754;42.664;23.594;2022-11-11T14:57:18;20.02;;;9.88;;
23171;SDS011;11754;42.664;23.594;2022-11-11T14:59:47;18.23;;;9.73;;
23171;SDS011;11754;42.664;23.594;2022-11-11T15:02:30;18.95;;;10.95;;
23171;SDS011;11754;42.664;23.594;2022-11-11T15:04:59;23.08;;;12.40;;
23171;SDS011;11754;42.664;23.594;2022-11-11T15:27:07;32.95;;;16.98;;
23171;SDS011;11754;42.664;23.594;2022-11-11T15:30:14;32.17;;;17.45;;
23171;SDS011;11754;42.664;23.594;2022-11-11T15:35:27;19.52;;;11.25;;
23171;SDS011;11754;42.664;23.594;2022-11-11T15:38:00;21.63;;;13.02;;
23171;SDS011;11754;42.664;23.594;2022-11-11T15:40:47;22.88;;;15.48;;
23171;SDS011;11754;42.664;23.594;2022-11-11T15:43:16;32.13;;;21.73;;
23171;SDS011;11754;42.664;23.594;2022-11-11T15:45:44;37.70;;;25.70;;
23171;SDS011;11754;42.664;23.594;2022-11-11T15:48:17;33.38;;;23.48;;
23171;SDS011;11754;42.664;23.594;2022-11-11T15:50:47;28.33;;;19.40;;
23171;SDS011;11754;42.664;23.594;2022-11-11T15:53:13;28.35;;;18.40;;
23171;SDS011;11754;42.664;23.594;2022-11-11T15:55:50;35.92;;;20.80;;
23171;SDS011;11754;42.664;23.594;2022-11-11T15:58:24;30.45;;;20.58;;
23171;SDS011;11754;42.664;23.594;2022-11-11T16:00:56;29.17;;;18.20;;
23171;SDS011;11754;42.664;23.594;2022-11-11T16:03:30;25.98;;;18.40;;
23171;SDS011;11754;42.664;23.594;2022-11-11T16:05:56;27.83;;;16.95;;
23171;SDS011;11754;42.664;23.594;2022-11-11T16:08:22;32.50;;;17.60;;
23171;SDS011;11754;42.664;23.594;2022-11-11T16:10:57;31.33;;;19.17;;
23171;SDS011;11754;42.664;23.594;2022-11-11T16:13:26;32.78;;;18.40;;
23171;SDS011;11754;42.664;23.594;2022-11-11T16:15:59;37.10;;;21.25;;
23171;SDS011;11754;42.664;23.594;2022-11-11T16:18:26;39.58;;;23.73;;
23171;SDS011;11754;42.664;23.594;2022-11-11T16:23:30;42.65;;;24.40;;
23171;SDS011;11754;42.664;23.594;2022-11-11T16:25:57;32.40;;;20.23;;
23171;SDS011;11754;42.664;23.594;2022-11-11T16:28:24;31.88;;;17.17;;
23171;SDS011;11754;42.664;23.594;2022-11-11T16:30:57;23.05;;;14.02;;
23171;SDS011;11754;42.664;23.594;2022-11-11T16:35:51;22.17;;;13.68;;
23171;SDS011;11754;42.664;23.594;2022-11-11T16:38:32;17.05;;;11.63;;
23171;SDS011;11754;42.664;23.594;2022-11-11T16:40:58;14.57;;;10.05;;
23171;SDS011;11754;42.664;23.594;2022-11-11T16:43:24;17.17;;;10.35;;
23171;SDS011;11754;42.664;23.594;2022-11-11T16:51:18;14.43;;;10.00;;
23171;SDS011;11754;42.664;23.594;2022-11-11T16:54:10;14.02;;;9.75;;
23171;SDS011;11754;42.664;23.594;2022-11-11T16:56:43;15.25;;;9.60;;
23171;SDS011;11754;42.664;23.594;2022-11-11T16:59:43;15.02;;;10.35;;
23171;SDS011;11754;42.664;23.594;2022-11-11T17:02:16;21.52;;;12.77;;
23171;SDS011;11754;42.664;23.594;2022-11-11T17:04:46;20.83;;;13.27;;
23171;SDS011;11754;42.664;23.594;2022-11-11T17:12:44;24.25;;;14.68;;
23171;SDS011;11754;42.664;23.594;2022-11-11T17:15:13;25.80;;;16.33;;
23171;SDS011;11754;42.664;23.594;2022-11-11T17:17:40;19.60;;;13.65;;
23171;SDS011;11754;42.664;23.594;2022-11-11T17:20:09;19.08;;;14.40;;